Home > Products > Valid Products > TAF

000
FTUS41 KCAR 011200 AAA
TAFHUL
TAF AMD
KHUL 011233Z 0113/0212 02005KT P6SM OVC020
     FM011400 04004KT P6SM BKN030
     FM011600 05004KT P6SM SCT025
     FM021100 05004KT 2SM BR FEW250=



000
FTUS41 KCAR 011200 AAA
TAFCAR
TAF AMD
KCAR 011231Z 0113/0212 02004KT P6SM BKN008
     FM011300 02004KT P6SM BKN010
     FM011500 VRB03KT P6SM SCT110=



000
FTUS41 KCAR 011100
TAFBGR
TAF
KBGR 011120Z 0112/0212 03007KT P6SM BKN020
     FM011400 03008KT P6SM SCT025 BKN040
     FM011700 04007KT P6SM OVC060
     FM012000 04006KT P6SM BKN040
     FM020600 02009KT P6SM OVC025=



000
FTUS41 KCAR 011100
TAFCAR
TAF
KCAR 011120Z 0112/0212 02004KT P6SM BKN005
     FM011300 02004KT P6SM SCT005
     FM011800 VRB03KT P6SM SCT110=



000
FTUS41 KCAR 011100
TAFBHB
TAF
KBHB 011120Z 0112/0212 04010KT P6SM OVC018
     FM011700 05009KT P6SM OVC015
     FM012100 04008KT P6SM BKN050
     FM020000 05009KT P6SM BKN015
      AMD LTD TO CLD VIS AND WIND=



000
FTUS41 KCAR 011100
TAFPQI
TAF
KPQI 011120Z 0112/0212 02004KT P6SM BKN009
     FM011300 02004KT P6SM SCT020
     FM011700 VRB03KT P6SM SCT050
      AMD LTD TO CLD VIS AND WIND=



000
FTUS41 KCAR 011100
TAFHUL
TAF
KHUL 011120Z 0112/0212 02005KT 5SM -DZ BR BKN006
     FM011400 04004KT P6SM SCT008
     FM011700 05004KT P6SM SCT025
     FM021100 05004KT 2SM BR FEW250=



000
FTUS41 KCAR 010900 AAA
TAFHUL
TAF AMD
KHUL 010924Z 0109/0206 02004KT 4SM BR OVC005
     FM011400 03005KT P6SM SCT015
     FM012300 08005KT P6SM FEW250=



000
FTUS41 KCAR 010800 AAB
TAFBHB
TAF AMD
KBHB 010849Z 0109/0206 04004KT P6SM SCT008 OVC015
     FM011400 03008KT P6SM SCT012
     FM012000 04007KT P6SM SCT025
      AMD LTD TO CLD VIS AND WIND=



000
FTUS41 KCAR 010800 AAA
TAFBGR
TAF AMD
KBGR 010848Z 0109/0206 04004KT P6SM SCT015 BKN040
     FM011000 04006KT P6SM BKN015
     FM011400 03008KT P6SM SCT015
     FM012000 04007KT P6SM SCT035=



000
FTUS41 KCAR 010800 AAA
TAFCAR
TAF AMD
KCAR 010847Z 0109/0206 01004KT 4SM BR OVC007
     FM011100 01004KT P6SM SCT007
     FM011800 04004KT P6SM FEW250=



000
FTUS41 KCAR 010800 AAA
TAFBHB
TAF AMD
KBHB 010812Z 0108/0206 04004KT P6SM SCT008 OVC020
     FM011000 04006KT P6SM BKN008
     FM011400 03008KT P6SM SCT012
     FM012000 04007KT P6SM SCT025
      AMD LTD TO CLD VIS AND WIND=



000
FTUS41 KCAR 010700 AAA
TAFPQI
TAF AMD
KPQI 010701Z 0107/0206 01004KT P6SM OVC006
     FM011300 02004KT P6SM SCT015
     FM011800 04004KT P6SM FEW250
      AMD LTD TO CLD VIS AND WIND=



000
FTUS41 KCAR 010500
TAFBHB
TAF
KBHB 010520Z 0106/0206 04004KT P6SM OVC012
     FM011000 04006KT P6SM BKN008
     FM011400 03008KT P6SM BKN012
     FM012000 04007KT P6SM BKN025
      AMD LTD TO CLD VIS AND WIND=



000
FTUS41 KCAR 010500
TAFPQI
TAF
KPQI 010520Z 0106/0206 36004KT P6SM OVC018
     FM010700 01004KT P6SM OVC012
     FM011300 02004KT P6SM SCT015
     FM011800 04004KT P6SM FEW250
      AMD LTD TO CLD VIS AND WIND=



000
FTUS41 KCAR 010500
TAFCAR
TAF
KCAR 010520Z 0106/0206 01004KT P6SM OVC007
     FM011100 01004KT P6SM SCT007
     FM011800 04004KT P6SM FEW250=



000
FTUS41 KCAR 010500
TAFHUL
TAF
KHUL 010520Z 0106/0206 02004KT P6SM OVC009
     FM011400 03005KT P6SM SCT015
     FM012300 08005KT P6SM FEW250=



000
FTUS41 KCAR 010500
TAFBGR
TAF
KBGR 010520Z 0106/0206 04004KT P6SM BKN025
     FM011000 04006KT P6SM BKN008
     FM011400 03008KT P6SM BKN018
     FM012000 04007KT P6SM BKN035=



000
FTUS41 KCAR 010500 AAB
TAFHUL
TAF AMD
KHUL 010501Z 0105/0124 00000KT P6SM OVC009
     FM010700 02005KT P6SM BKN008 OVC015
     FM011100 VRB02KT P6SM BCFG SCT003 BKN012
     FM011400 03005KT P6SM BKN025
     FM011600 03006KT P6SM SCT250=



000
FTUS41 KCAR 010500 AAA
TAFCAR
TAF AMD
KCAR 010501Z 0105/0124 36004KT P6SM OVC007
     FM011100 01003KT P6SM BCFG BKN003
     FM011300 04004KT P6SM SCT250=



000
FTUS41 KCAR 010300 AAB
TAFCAR
TAF AMD
KCAR 010322Z 0103/0124 36004KT P6SM SCT007 OVC020
     FM011100 01003KT P6SM BCFG BKN003
     FM011300 04004KT P6SM SCT250=



000
FTUS41 KCAR 010300 AAA
TAFBHB
TAF AMD
KBHB 010321Z 0103/0124 05006KT P6SM OVC010
     FM011700 05010KT P6SM OVC020
      AMD LTD TO CLD VIS AND WIND=



000
FTUS41 KCAR 010300 AAA
TAFBGR
TAF AMD
KBGR 010321Z 0103/0124 VRB03KT P6SM OVC022
     FM011600 03008KT P6SM BKN020=



000
FTUS41 KCAR 010300 AAA
TAFHUL
TAF AMD
KHUL 010320Z 0103/0124 00000KT P6SM OVC015
     FM010700 02005KT P6SM BKN008 OVC015
     FM011100 VRB02KT P6SM BCFG SCT003 BKN012
     FM011400 03005KT P6SM BKN025
     FM011600 03006KT P6SM SCT250=



000
FTUS41 KCAR 010000 AAA
TAFCAR
TAF AMD
KCAR 010006Z 0100/0124 36004KT P6SM OVC007
     FM011100 01003KT P6SM BCFG BKN003
     FM011300 04004KT P6SM SCT250=



000
FTUS41 KCAR 302300
TAFPQI
TAF
KPQI 302321Z 0100/0124 36005KT P6SM OVC015
     FM011100 VRB02KT P6SM BCFG BKN004
     FM011400 02004KT P6SM SCT250
      AMD LTD TO CLD VIS AND WIND=



000
FTUS41 KCAR 302300
TAFBHB
TAF
KBHB 302321Z 0100/0124 03004KT P6SM OVC015
     FM010300 05006KT P6SM OVC008
     FM011700 05010KT P6SM OVC020
      AMD LTD TO CLD VIS AND WIND=



000
FTUS41 KCAR 302300
TAFHUL
TAF
KHUL 302321Z 0100/0124 00000KT P6SM OVC020
     FM010700 02005KT P6SM BKN008 OVC015
     FM011100 VRB02KT P6SM BCFG SCT003 BKN012
     FM011400 03005KT P6SM BKN025
     FM011600 03006KT P6SM SCT250=



000
FTUS41 KCAR 302300
TAFCAR
TAF
KCAR 302321Z 0100/0124 00000KT P6SM OVC015
     FM011100 01003KT P6SM BCFG BKN003
     FM011300 04004KT P6SM SCT250=



000
FTUS41 KCAR 302300
TAFBGR
TAF
KBGR 302321Z 0100/0124 02004KT P6SM FEW015 OVC035
     FM010200 VRB03KT P6SM OVC012
     FM011600 03008KT P6SM BKN020=



000
FTUS41 KCAR 302200 AAA
TAFCAR
TAF AMD
KCAR 302240Z 3023/0118 00000KT P6SM -DZ OVC007
     FM010100 00000KT P6SM BKN015
     FM010300 VRB03KT P6SM BKN025
     FM010500 01004KT P6SM BKN015
     FM010700 01004KT P6SM BKN003=



000
FTUS41 KCAR 302200 AAA
TAFPQI
TAF AMD
KPQI 302208Z 3022/0118 00000KT P6SM BKN012
     FM010200 VRB03KT P6SM BKN015
     FM010400 02004KT P6SM BKN010
     FM010500 01004KT P6SM BKN008
     FM010700 01004KT P6SM BKN003
      AMD LTD TO CLD VIS AND WIND=



000
FTUS41 KCAR 302200 AAC
TAFCAR
TAF AMD
KCAR 302208Z 3022/0118 00000KT P6SM -DZ OVC018
     FM010100 00000KT P6SM BKN015
     FM010300 VRB03KT P6SM BKN025
     FM010500 01004KT P6SM BKN015
     FM010700 01004KT P6SM BKN003=



000
FTUS41 KCAR 302100 AAA
TAFBHB
TAF AMD
KBHB 302108Z 3021/0118 05006KT P6SM -DZ OVC016
     FM302200 05006KT P6SM BKN010
     FM010100 05006KT P6SM BKN008
     FM010300 05006KT P6SM BKN003
     FM011500 05010KT P6SM BKN015
     FM011700 05009KT P6SM BKN020
      AMD LTD TO CLD VIS AND WIND=



000
FTUS41 KCAR 302100 AAB
TAFBGR
TAF AMD
KBGR 302108Z 3021/0118 VRB03KT P6SM -DZ SCT012 BKN030
     FM302300 VRB03KT P6SM -DZ BKN015
     FM010100 VRB03KT P6SM BKN012
     FM010300 03005KT P6SM BKN003
     FM011600 03008KT P6SM BKN020
     FM011700 03008KT P6SM BKN025=



000
FTUS41 KCAR 302100 AAB
TAFHUL
TAF AMD
KHUL 302107Z 3021/0118 VRB03KT P6SM -DZ SCT020
     FM010000 VRB03KT P6SM BKN030
     FM010200 04004KT P6SM BKN025
     FM010500 02004KT P6SM BKN015
     FM010700 02005KT P6SM BKN008
     FM011400 03005KT P6SM SCT025=



000
FTUS41 KCAR 302100 AAB
TAFCAR
TAF AMD
KCAR 302107Z 3021/0118 00000KT P6SM -DZ OVC006
     FM010100 00000KT P6SM BKN010
     FM010300 VRB03KT P6SM BKN025
     FM010500 01004KT P6SM BKN015
     FM010700 01004KT P6SM BKN003=



000
FTUS41 KCAR 301900 AAA
TAFBGR
TAF AMD
KBGR 301911Z 3019/0118 VRB03KT P6SM -DZ SCT012 BKN035
     FM302200 VRB03KT P6SM -DZ BKN015
     FM010100 VRB03KT P6SM BKN012
     FM010300 03005KT P6SM BKN003
     FM011600 03008KT P6SM BKN020
     FM011700 03008KT P6SM BKN025=



000
FTUS41 KCAR 301900 AAA
TAFHUL
TAF AMD
KHUL 301910Z 3019/0118 VRB03KT P6SM -DZ OVC021
     FM302000 VRB03KT P6SM -DZ BKN020
     FM010000 VRB03KT P6SM BKN030
     FM010200 04004KT P6SM BKN025
     FM010500 02004KT P6SM BKN015
     FM010700 02005KT P6SM BKN008
     FM011400 03005KT P6SM SCT025=



000
FTUS41 KCAR 301900 AAA
TAFCAR
TAF AMD
KCAR 301910Z 3019/0118 00000KT P6SM -DZ OVC010
     FM302200 00000KT P6SM BKN015
     FM010100 00000KT P6SM BKN030
     FM010300 VRB03KT P6SM BKN025
     FM010500 01004KT P6SM BKN015
     FM010700 01004KT P6SM BKN003=



000
FTUS41 KCAR 301700
TAFBGR
TAF
KBGR 301732Z 3018/0118 VRB03KT P6SM -DZ SCT012 BKN020
     FM302100 VRB03KT P6SM -DZ BKN010
     FM010100 VRB03KT P6SM BKN008
     FM010300 03005KT P6SM BKN003
     FM011600 03008KT P6SM BKN020
     FM011700 03008KT P6SM BKN025=



000
FTUS41 KCAR 301700
TAFCAR
TAF
KCAR 301732Z 3018/0118 00000KT P6SM -DZ OVC007
     FM302200 00000KT P6SM BKN020
     FM010100 00000KT P6SM BKN030
     FM010300 VRB03KT P6SM BKN025
     FM010500 01004KT P6SM BKN015
     FM010700 01004KT P6SM BKN003=



000
FTUS41 KCAR 301700
TAFPQI
TAF
KPQI 301732Z 3018/0118 00000KT P6SM -DZ BKN010
     FM302200 00000KT P6SM BKN020
     FM010100 00000KT P6SM BKN035
     FM010200 VRB03KT P6SM BKN030
     FM010400 02004KT P6SM BKN020
     FM010500 01004KT P6SM BKN008
     FM010700 01004KT P6SM BKN003
      AMD LTD TO CLD VIS AND WIND=



000
FTUS41 KCAR 301700
TAFBHB
TAF
KBHB 301732Z 3018/0118 05006KT P6SM -DZ OVC006
     FM302200 05006KT P6SM BKN010
     FM010100 05006KT P6SM BKN008
     FM010300 05006KT P6SM BKN003
     FM011500 05010KT P6SM BKN015
     FM011700 05009KT P6SM BKN020
      AMD LTD TO CLD VIS AND WIND=



000
FTUS41 KCAR 301700
TAFHUL
TAF
KHUL 301732Z 3018/0118 VRB03KT P6SM -DZ OVC018
     FM302000 VRB03KT P6SM -DZ BKN020
     FM010000 VRB03KT P6SM BKN030
     FM010200 04004KT P6SM BKN025
     FM010500 02004KT P6SM BKN015
     FM010700 02005KT P6SM BKN008
     FM011400 03005KT P6SM SCT025=



000
FTUS41 KCAR 301700 AAA
TAFCAR
TAF AMD
KCAR 301706Z 3017/0112 12005KT 6SM -DZ OVC007
     FM301900 16004KT P6SM -DZ OVC015
     FM302100 VRB03KT P6SM -DZ OVC035
     FM010600 00000KT P6SM -DZ BKN025
     FM011000 01004KT 6SM -DZ SCT015=



000
FTUS41 KCAR 301600 AAA
TAFPQI
TAF AMD
KPQI 301648Z 3017/0112 15004KT P6SM -DZ OVC008
     FM301800 VRB03KT P6SM -DZ OVC025
     FM302100 VRB03KT P6SM -DZ BKN035
     FM010500 00000KT P6SM -DZ BKN025
     FM011000 01004KT 6SM -DZ SCT015
      AMD LTD TO CLD VIS AND WIND=



000
FTUS41 KCAR 301600 AAA
TAFBGR
TAF AMD
KBGR 301647Z 3017/0112 05009KT 6SM -DZ OVC010
     FM302100 05005KT P6SM -DZ OVC012
     FM010100 04006KT P6SM -DZ BKN007
     FM010300 03004KT P6SM -DZ OVC003
     FM010900 03006KT 6SM -DZ BKN001=



000
FTUS41 KCAR 301400 AAA
TAFHUL
TAF AMD
KHUL 301440Z 3015/0112 13005KT P6SM -DZ OVC010
     FM301700 14004KT P6SM -DZ OVC015
     FM301900 VRB03KT P6SM -DZ OVC025
     FM302300 VRB03KT P6SM -DZ BKN035
     FM010400 00000KT P6SM -DZ SCT007 BKN015
     FM010600 00000KT P6SM -DZ BKN007=



000
FTUS41 KCAR 301400 AAB
TAFCAR
TAF AMD
KCAR 301437Z 3015/0112 12005KT 6SM -DZ OVC007
     FM301700 14005KT P6SM -DZ SCT007 OVC015
     FM301900 16004KT P6SM -DZ SCT015 OVC025
     FM302100 VRB03KT P6SM -DZ OVC035
     FM010600 00000KT P6SM -DZ BKN025
     FM011000 01004KT 6SM -DZ SCT015=



000
FTUS41 KCAR 301400 AAA
TAFCAR
TAF AMD
KCAR 301436Z 3015/0112 12005KT 6SM -DZ OVC007
     FM301600 14005KT P6SM -DZ SCT007 OVC015
     FM301800 16004KT P6SM -DZ SCT015 OVC025
     FM302100 VRB03KT P6SM -DZ OVC035
     FM010600 00000KT P6SM -DZ BKN025
     FM011000 01004KT 6SM -DZ SCT015=



000
FTUS41 KCAR 301100
TAFBHB
TAF
KBHB 301120Z 3012/0112 06011KT 3SM -DZ OVC006
     FM301500 06008KT P6SM -DZ OVC007
     FM301800 05011KT P6SM -DZ OVC015
     FM010200 05010KT P6SM -DZ OVC007
     FM010500 03008KT 2SM -DZ OVC003
     FM010900 03007KT 3SM BR OVC006
      AMD LTD TO CLD VIS AND WIND=



000
FTUS41 KCAR 301100
TAFHUL
TAF
KHUL 301120Z 3012/0112 09008KT P6SM -DZ SCT003 OVC007
     FM301500 13005KT P6SM -DZ OVC010
     FM301700 14004KT P6SM -DZ OVC015
     FM301900 VRB03KT P6SM -DZ OVC025
     FM302300 VRB03KT P6SM -DZ BKN035
     FM010400 00000KT P6SM -DZ SCT007 BKN015
     FM010600 00000KT P6SM -DZ BKN007=



000
FTUS41 KCAR 301100
TAFBGR
TAF
KBGR 301120Z 3012/0112 05009KT 6SM -DZ OVC004
     FM301800 06005KT P6SM -DZ SCT003 OVC007
     FM302100 05005KT P6SM -DZ OVC015
     FM010100 04006KT P6SM -DZ BKN007
     FM010300 03004KT P6SM -DZ OVC003
     FM010900 03006KT 6SM -DZ BKN001=



000
FTUS41 KCAR 301100
TAFPQI
TAF
KPQI 301120Z 3012/0112 11007KT 3SM -DZ BR OVC003
     FM301400 13006KT P6SM -DZ OVC007
     FM301600 15004KT P6SM -DZ OVC015
     FM301800 VRB03KT P6SM -DZ OVC025
     FM302100 VRB03KT P6SM -DZ BKN035
     FM010500 00000KT P6SM -DZ BKN025
     FM011000 01004KT 6SM -DZ SCT015
      AMD LTD TO CLD VIS AND WIND=



000
FTUS41 KCAR 301100
TAFCAR
TAF
KCAR 301120Z 3012/0112 11006KT 3SM -DZ BR OVC003
     FM301500 14005KT 6SM -DZ OVC007
     FM301600 15005KT P6SM -DZ SCT007 OVC015
     FM301800 17004KT P6SM -DZ SCT015 OVC025
     FM302100 VRB03KT P6SM -DZ OVC035
     FM010600 00000KT P6SM -DZ BKN025
     FM011000 01004KT 6SM -DZ SCT015=



000
FTUS41 KCAR 300700 AAB
TAFCAR
TAF AMD
KCAR 300742Z 3008/0106 09005KT 2SM -DZ OVC004
     FM301000 13005KT P6SM -DZ OVC007
     FM301500 14005KT P6SM -DZ SCT007 OVC015
     FM301800 17004KT P6SM SCT007 OVC015
     FM302100 00000KT P6SM OVC030=



000
FTUS41 KCAR 300700 AAA
TAFCAR
TAF AMD
KCAR 300704Z 3007/0106 09005KT 3SM -DZ OVC004
     FM301000 13005KT P6SM -DZ OVC007
     FM301500 14005KT P6SM -DZ SCT007 OVC015
     FM301800 17004KT P6SM SCT007 OVC015
     FM302100 00000KT P6SM OVC030=



000
FTUS41 KCAR 300500 RRA
TAFBGR
TAF
KBGR 300548Z 3006/0106 04007KT P6SM -DZ OVC008
     FM301000 05008KT P6SM -DZ OVC004
     FM301400 05007KT P6SM -DZ OVC007
     FM301800 06005KT P6SM SCT007 OVC015
     FM010300 VRB03KT 1SM BR OVC006=



000
FTUS41 KCAR 300500 RRA
TAFPQI
TAF
KPQI 300548Z 3006/0106 10005KT P6SM -DZ SCT007 OVC015
     FM301700 16006KT P6SM -DZ SCT007 OVC015
     FM302000 00000KT P6SM SCT015 OVC025
     FM302300 00000KT P6SM SCT020 BKN035
     FM010200 00000KT P6SM BKN020
      AMD LTD TO CLD VIS AND WIND=



000
FTUS41 KCAR 300500 RRA
TAFCAR
TAF
KCAR 300548Z 3006/0106 09005KT P6SM -DZ SCT015 OVC025
     FM301400 13005KT P6SM -DZ OVC007
     FM301500 14005KT P6SM -DZ SCT007 OVC015
     FM301800 17004KT P6SM SCT007 OVC015
     FM302100 00000KT P6SM OVC030=



000
FTUS41 KCAR 300500 RRA
TAFBHB
TAF
KBHB 300548Z 3006/0106 06011KT 4SM -DZ OVC006
     FM300800 06009KT 6SM -DZ OVC004
     FM301500 06007KT 6SM -DZ SCT003 OVC007
     FM301800 07005KT P6SM SCT007 OVC015
     FM010000 04004KT P6SM OVC006
     FM010300 03004KT 5SM BR OVC003
      AMD LTD TO CLD VIS AND WIND=



000
FTUS41 KCAR 300500 RRA
TAFHUL
TAF
KHUL 300548Z 3006/0106 09006KT P6SM -DZ OVC015
     FM300800 09006KT P6SM -DZ OVC007
     FM301400 12004KT P6SM -DZ OVC010
     FM301900 00000KT P6SM SCT015 OVC025
     FM302200 00000KT P6SM BKN020
     FM010400 00000KT P6SM BKN007=



000
FTUS41 KCAR 300200 AAA
TAFBHB
TAF AMD
KBHB 300220Z 3002/3024 05008KT 5SM -DZ BR OVC006
     FM301600 06008KT P6SM OVC008
     FM301900 06007KT P6SM OVC015
      AMD LTD TO CLD VIS AND WIND=



000
FTUS41 KCAR 292300 AAA
TAFCAR
TAF AMD
KCAR 292351Z 3000/3024 09007KT 6SM -SHRADZ OVC050
     FM300400 09006KT 6SM -DZ OVC025
     FM300500 09005KT 6SM -DZ OVC015
     FM301200 11005KT 6SM -DZ OVC008
     FM301600 15004KT P6SM OVC015
     FM301900 VRB03KT P6SM OVC025=



000
FTUS41 KCAR 292300 AAA
TAFPQI
TAF AMD
KPQI 292351Z 3000/3024 09007KT 6SM -SHRADZ OVC040
     FM300200 09006KT 6SM -DZ OVC025
     FM300300 09006KT 6SM -DZ OVC015
     FM301200 11006KT 6SM -DZ OVC008
     FM301600 15004KT P6SM OVC015
     FM301900 VRB03KT P6SM OVC025
      AMD LTD TO CLD VIS AND WIND=



000
FTUS41 KCAR 292300
TAFBHB
TAF
KBHB 292328Z 3000/3024 06013KT P6SM OVC013
     FM300200 06012KT 6SM -DZ OVC008
     FM300500 06011KT 6SM -DZ OVC005
     FM301600 06008KT P6SM OVC008
     FM301900 06007KT P6SM OVC015
      AMD LTD TO CLD VIS AND WIND=



000
FTUS41 KCAR 292300
TAFHUL
TAF
KHUL 292328Z 3000/3024 08009KT 6SM -DZ OVC030
     FM300100 08009KT 6SM -DZ OVC025
     FM300300 08007KT 6SM -DZ OVC015
     FM301000 09006KT 6SM -DZ OVC008
     FM301700 VRB03KT P6SM OVC015
     FM302100 00000KT P6SM OVC025=



000
FTUS41 KCAR 292300
TAFBGR
TAF
KBGR 292328Z 3000/3024 06009KT P6SM OVC020
     FM300100 05009KT P6SM OVC015
     FM300200 05008KT 6SM -DZ OVC015
     FM300300 05008KT 6SM -DZ OVC008
     FM301000 05007KT 6SM -DZ OVC003
     FM301500 06007KT P6SM OVC008=



000
FTUS41 KCAR 292300
TAFPQI
TAF
KPQI 292328Z 3000/3024 09007KT 3SM -SHRADZ OVC040
     FM300200 09006KT 3SM -DZ OVC025
     FM300300 09006KT 6SM -DZ OVC015
     FM301200 11006KT 6SM -DZ OVC008
     FM301600 15004KT P6SM OVC015
     FM301900 VRB03KT P6SM OVC025
      AMD LTD TO CLD VIS AND WIND=



000
FTUS41 KCAR 292300
TAFCAR
TAF
KCAR 292328Z 3000/3024 09007KT 3SM -SHRADZ OVC050
     FM300400 09006KT 6SM -DZ OVC025
     FM300500 09005KT 6SM -DZ OVC015
     FM301200 11005KT 6SM -DZ OVC008
     FM301600 15004KT P6SM OVC015
     FM301900 VRB03KT P6SM OVC025=



000
FTUS41 KCAR 291700
TAFBGR
TAF
KBGR 291731Z 2918/3018 06010G18KT P6SM BKN020 OVC035
     FM300000 05009KT 6SM -DZ VCSH OVC015
     FM300500 05007KT 4SM -DZ BR VCSH OVC008
     FM301400 06007KT P6SM OVC010
     FM301600 06006KT P6SM OVC015=



000
FTUS41 KCAR 291700
TAFPQI
TAF
KPQI 291731Z 2918/3018 06008G15KT P6SM -DZ VCSH BKN025 OVC040
     FM292100 06008G15KT 5SM -RADZ OVC020
     FM300200 09006KT 4SM -SHRADZ BR OVC015
     FM301000 10005KT 6SM -DZ OVC020
     FM301500 14005KT P6SM OVC025
      AMD LTD TO CLD VIS AND WIND=



000
FTUS41 KCAR 291700
TAFBHB
TAF
KBHB 291731Z 2918/3018 06012G20KT P6SM BKN018 OVC035
     FM292300 05009KT 6SM -DZ VCSH OVC012
     FM300300 05007KT 3SM -DZ BR VCSH OVC008
     FM301400 06007KT P6SM OVC010
     FM301600 06006KT P6SM OVC015
      AMD LTD TO CLD VIS AND WIND=



000
FTUS41 KCAR 291700
TAFHUL
TAF
KHUL 291731Z 2918/3018 07010G18KT P6SM -DZ BKN025 OVC040
     FM300200 09008KT 6SM -SHRADZ OVC015
     FM301300 11006KT P6SM OVC022=



000
FTUS41 KCAR 291700
TAFCAR
TAF
KCAR 291731Z 2918/3018 06008G15KT P6SM -DZ VCSH BKN025 OVC040
     FM292100 06008G15KT 5SM -RADZ OVC020
     FM300200 09006KT 4SM -SHRADZ BR OVC015
     FM301000 10005KT 6SM -DZ OVC020
     FM301500 14005KT P6SM OVC025=



000
FTUS41 KCAR 291400 AAD
TAFBGR
TAF AMD
KBGR 291439Z 2915/3012 04008G14KT P6SM BKN030 OVC100
     FM292200 06009G16KT P6SM VCSH OVC015
     FM300600 06009KT P6SM VCSH OVC008=



000
FTUS41 KCAR 291400 AAC
TAFBHB
TAF AMD
KBHB 291439Z 2915/3012 06008G14KT P6SM BKN030 OVC100
     FM292200 06010G18KT P6SM VCSH OVC015
     FM300600 06009KT P6SM VCSH OVC008
      AMD LTD TO CLD VIS AND WIND=



000
FTUS41 KCAR 291400 AAB
TAFBHB
TAF AMD
KBHB 291430Z 2915/3012 06008G14KT P6SM SCT040 BKN150
     FM291600 06009G15KT P6SM BKN030
     FM292200 06010G18KT P6SM VCSH OVC015
     FM300600 06009KT P6SM VCSH OVC008
      AMD LTD TO CLD VIS AND WIND=



000
FTUS41 KCAR 291400 AAC
TAFBGR
TAF AMD
KBGR 291430Z 2915/3012 03008G14KT P6SM SCT040 BKN150
     FM291600 04009G16KT P6SM BKN030
     FM292200 06009G16KT P6SM VCSH OVC015
     FM300600 06009KT P6SM VCSH OVC008=



000
FTUS41 KCAR 291400 AAA
TAFBHB
TAF AMD
KBHB 291429Z 2914/3012 03008G14KT P6SM SCT040 BKN150
     FM291600 04009KT P6SM BKN030
     FM292200 06013KT P6SM VCSH OVC015
     FM300600 06010KT P6SM VCSH OVC008
      AMD LTD TO CLD VIS AND WIND=



000
FTUS41 KCAR 291400 AAA
TAFBGR
TAF AMD
KBGR 291428Z 2914/3012 03008G14KT P6SM BKN150
     FM291600 04009KT P6SM BKN030
     FM292200 06013KT P6SM VCSH OVC015
     FM300600 06010KT P6SM VCSH OVC008=



000
FTUS41 KCAR 291400 AAB
TAFBGR
TAF AMD
KBGR 291428Z 2914/3012 03008G14KT P6SM SCT040 BKN150
     FM291600 04009KT P6SM BKN030
     FM292200 06013KT P6SM VCSH OVC015
     FM300600 06010KT P6SM VCSH OVC008=



000
FTUS41 KCAR 291400 AAA
TAFHUL
TAF AMD
KHUL 291425Z 2914/3012 06009G16KT P6SM VCSH OVC025
     FM292100 06008KT 6SM -SHRA OVC018
     FM300600 08007KT P6SM OVC010
     FM301100 09007KT P6SM OVC008=



000
FTUS41 KCAR 291400 AAA
TAFPQI
TAF AMD
KPQI 291423Z 2914/3012 06009G16KT P6SM OVC022
     FM292000 01012KT 5SM -SHRA OVC018
     FM300600 09006KT P6SM OVC012
      AMD LTD TO CLD VIS AND WIND=



000
FTUS41 KCAR 291400 AAA
TAFCAR
TAF AMD
KCAR 291421Z 2914/3012 07009G16KT 6SM -SHRA OVC015
     FM292200 07008KT 3SM -SHRA OVC020
     FM300400 09006KT P6SM OVC015
     FM301100 11005KT P6SM OVC008=



000
FTUS41 KCAR 291100
TAFBGR
TAF
KBGR 291127Z 2912/3012 34005KT P6SM BKN150
     FM291500 03009KT P6SM BKN025
     FM291900 05013KT P6SM BKN010
     FM300200 04011KT P6SM BKN003
     FM300900 05008KT P6SM OVC008=



000
FTUS41 KCAR 291100
TAFCAR
TAF
KCAR 291127Z 2912/3012 01012KT P6SM OVC017
     FM291300 02012KT 3SM -SHRA OVC015
     FM291900 05008KT 3SM -SHRA OVC020
     FM300400 09006KT P6SM OVC015
     FM301100 11005KT P6SM OVC008=



000
FTUS41 KCAR 291100
TAFBHB
TAF
KBHB 291127Z 2912/3012 VRB03KT P6SM SCT001
     FM291500 03009KT P6SM BKN008
     FM300000 05012KT P6SM BKN003
     FM300100 05012KT P6SM BKN001
      AMD LTD TO CLD VIS AND WIND=



000
FTUS41 KCAR 291100
TAFPQI
TAF
KPQI 291127Z 2912/3012 03010KT P6SM OVC017
     FM291300 01012KT 3SM -SHRA OVC010
     FM300300 09006KT P6SM OVC015
     FM300800 10006KT P6SM OVC010
      AMD LTD TO CLD VIS AND WIND=



000
FTUS41 KCAR 291100
TAFHUL
TAF
KHUL 291127Z 2912/3012 03005KT P6SM BKN023
     FM291500 04011KT P6SM OVC015
     FM291800 05010KT P6SM OVC025
     FM292300 06008KT P6SM BKN020
     FM300800 08007KT P6SM OVC010
     FM301100 09007KT P6SM OVC008=



000
FTUS41 KCAR 290900 AAC
TAFBHB
TAF AMD
KBHB 290923Z 2909/3006 VRB03KT 3SM BR BKN002
     FM291500 05009KT P6SM BKN015
     FM292300 05012G21KT P6SM BKN015
     FM300100 05013G22KT P6SM BKN008
     FM300300 06014G21KT P6SM BKN003
      AMD LTD TO CLD VIS AND WIND=



000
FTUS41 KCAR 290800 AAB
TAFBHB
TAF AMD
KBHB 290819Z 2908/3006 VRB03KT 1/4SM FG BKN001
     FM290900 VRB03KT 1SM BR BKN001
     FM291500 05009KT P6SM BKN015
     FM292300 05012G21KT P6SM BKN015
     FM300100 05013G22KT P6SM BKN008
     FM300300 06014G21KT P6SM BKN003
      AMD LTD TO CLD VIS AND WIND=



000
FTUS41 KCAR 290600 AAA
TAFBHB
TAF AMD
KBHB 290602Z 2906/3006 VRB03KT 2SM BR BKN004
     FM290800 VRB03KT P6SM BKN004
     FM291500 05009KT P6SM BKN015
     FM292300 05012G21KT P6SM BKN015
     FM300100 05013G22KT P6SM BKN008
     FM300300 06014G21KT P6SM BKN003
      AMD LTD TO CLD VIS AND WIND=



000
FTUS41 KCAR 290500
TAFBGR
TAF
KBGR 290527Z 2906/3006 VRB03KT P6SM SCT250
     FM291100 35004KT P6SM BKN003
     FM291200 01006KT P6SM BKN008
     FM291400 03009KT P6SM BKN015=



000
FTUS41 KCAR 290500
TAFPQI
TAF
KPQI 290527Z 2906/3006 VRB03KT P6SM SCT050
     FM290900 01009KT P6SM BKN045
     FM291200 02011KT P6SM OVC025
     FM291300 03011KT 3SM -SHRA OVC020
      AMD LTD TO CLD VIS AND WIND=



000
FTUS41 KCAR 290500
TAFBHB
TAF
KBHB 290527Z 2906/3006 VRB03KT P6SM SCT250
     FM291500 05009KT P6SM BKN015
     FM292300 05012G21KT P6SM BKN015
     FM300100 05013G22KT P6SM BKN008
     FM300300 06014G21KT P6SM BKN003
      AMD LTD TO CLD VIS AND WIND=



000
FTUS41 KCAR 290500
TAFHUL
TAF
KHUL 290527Z 2906/3006 VRB03KT P6SM SKC
     FM290900 35005KT P6SM BKN045
     FM291100 02008KT P6SM BKN020=



000
FTUS41 KCAR 290500
TAFCAR
TAF
KCAR 290527Z 2906/3006 34005KT P6SM SCT080
     FM290900 01010KT P6SM BKN060
     FM291200 02011KT P6SM OVC030
     FM291300 03011KT 3SM -SHRA OVC025
     FM300400 08004KT P6SM OVC025=



000
FTUS41 KCAR 282300
TAFPQI
TAF
KPQI 282331Z 2900/2924 25003KT P6SM FEW250
     FM290600 34006KT P6SM BKN030
     FM290900 01010KT P6SM VCSH OVC018
     FM291100 02011KT 6SM -DZ BR VCSH OVC010
     FM291400 04011KT P6SM -DZ VCSH OVC015
      AMD LTD TO CLD VIS AND WIND=



000
FTUS41 KCAR 282300
TAFBGR
TAF
KBGR 282331Z 2900/2924 18004KT P6SM FEW250
     FM291000 01006KT P6SM SCT040 BKN090
     FM291400 03010KT P6SM BKN030
     FM291700 03012KT 6SM -DZ VCSH OVC015=



000
FTUS41 KCAR 282300
TAFBHB
TAF
KBHB 282331Z 2900/2924 20008KT P6SM FEW250
     FM291200 02006KT P6SM SCT040 BKN090
     FM291500 05010KT P6SM BKN035
     FM291700 05013KT 5SM -DZ BR VCSH OVC015
      AMD LTD TO CLD VIS AND WIND=



000
FTUS41 KCAR 282300
TAFHUL
TAF
KHUL 282331Z 2900/2924 21003KT P6SM FEW250
     FM290900 36007KT P6SM VCSH OVC030
     FM291200 03010KT P6SM -DZ VCSH OVC015=



000
FTUS41 KCAR 282300
TAFCAR
TAF
KCAR 282331Z 2900/2924 26003KT P6SM FEW150 SCT250
     FM290600 34006KT P6SM BKN025
     FM290900 01010KT P6SM VCSH OVC015
     FM291100 02011KT 6SM -DZ BR VCSH OVC008
     FM291400 04011KT P6SM -DZ VCSH OVC015=



000
FTUS41 KCAR 282000 AAA
TAFPQI
TAF AMD
KPQI 282019Z 2820/2918 26010G18KT P6SM FEW250
     FM290300 27005KT P6SM SCT120
     FM290600 34006KT P6SM BKN030
     FM290900 01010KT P6SM VCSH OVC018
     FM291100 02011KT 6SM -DZ BR VCSH OVC010
     FM291400 04011KT P6SM -DZ VCSH OVC015
      AMD LTD TO CLD VIS AND WIND=



000
FTUS41 KCAR 282000 AAA
TAFCAR
TAF AMD
KCAR 282019Z 2820/2918 26008G14KT P6SM FEW250
     FM290300 27005KT P6SM SCT120
     FM290600 34006KT P6SM BKN025
     FM290900 01010KT P6SM VCSH OVC015
     FM291100 02011KT 6SM -DZ BR VCSH OVC008
     FM291400 04011KT P6SM -DZ VCSH OVC015=



000
FTUS41 KCAR 282000 AAA
TAFBGR
TAF AMD
KBGR 282019Z 2820/2918 27008KT P6SM FEW250
     FM290100 21006KT P6SM FEW250
     FM290200 VRB02KT P6SM FEW250
     FM291200 01006KT P6SM SCT040 BKN090
     FM291500 03010KT P6SM BKN030=



000
FTUS41 KCAR 282000 AAA
TAFHUL
TAF AMD
KHUL 282019Z 2820/2918 24010G18KT P6SM FEW250
     FM282200 25007KT P6SM SKC
     FM290100 VRB03KT P6SM FEW250
     FM290900 36007KT P6SM VCSH OVC030
     FM291200 03010KT P6SM -DZ VCSH OVC015=



000
FTUS41 KCAR 282000 AAA
TAFBHB
TAF AMD
KBHB 282019Z 2820/2918 20007G13KT P6SM FEW250
     FM290200 22005KT P6SM FEW250
     FM290700 VRB02KT P6SM SCT200
     FM291300 02006KT P6SM SCT060
     FM291600 05010KT P6SM BKN040
     FM291700 05011KT P6SM BKN030
      AMD LTD TO CLD VIS AND WIND=



000
FTUS41 KCAR 281700
TAFHUL
TAF
KHUL 281738Z 2818/2918 24010G18KT P6SM FEW250
     FM282200 25007KT P6SM SKC
     FM290100 VRB03KT P6SM FEW250
     FM290900 36007KT P6SM VCSH OVC030
     FM291200 03010KT P6SM -DZ VCSH OVC015=



000
FTUS41 KCAR 281700
TAFPQI
TAF
KPQI 281738Z 2818/2918 24013G21KT P6SM FEW250
     FM282300 26008KT P6SM FEW250
     FM290300 27005KT P6SM SCT120
     FM290600 34006KT P6SM BKN030
     FM290900 01010KT P6SM VCSH OVC018
     FM291100 02011KT 6SM -DZ BR VCSH OVC010
     FM291400 04011KT P6SM -DZ VCSH OVC015
      AMD LTD TO CLD VIS AND WIND=



000
FTUS41 KCAR 281700
TAFCAR
TAF
KCAR 281738Z 2818/2918 24013G21KT P6SM FEW250
     FM282300 26008KT P6SM FEW250
     FM290300 27005KT P6SM SCT120
     FM290600 34006KT P6SM BKN025
     FM290900 01010KT P6SM VCSH OVC015
     FM291100 02011KT 6SM -DZ BR VCSH OVC008
     FM291400 04011KT P6SM -DZ VCSH OVC015=



000
FTUS41 KCAR 281700
TAFBGR
TAF
KBGR 281738Z 2818/2918 23007G13KT P6SM FEW250
     FM290100 21006KT P6SM FEW250
     FM290200 VRB02KT P6SM FEW250
     FM291200 01006KT P6SM SCT040 BKN090
     FM291500 03010KT P6SM BKN030=



000
FTUS41 KCAR 281700
TAFBHB
TAF
KBHB 281738Z 2818/2918 20007G13KT P6SM FEW250
     FM290200 22005KT P6SM FEW250
     FM290700 VRB02KT P6SM SCT200
     FM291300 02006KT P6SM SCT060
     FM291600 05010KT P6SM BKN040
     FM291700 05011KT P6SM BKN030
      AMD LTD TO CLD VIS AND WIND=



000
FTUS41 KCAR 281700 AAA
TAFPQI
TAF AMD
KPQI 281722Z 2817/2912 24010G17KT P6SM FEW250
     FM290100 28004KT P6SM SCT250
     FM290800 34006KT P6SM OVC020
     FM291100 36010KT P6SM OVC015
      AMD LTD TO CLD VIS AND WIND=



000
FTUS41 KCAR 281500 AAA
TAFPQI
TAF AMD
KPQI 281502Z 2815/2912 22010G17KT P6SM FEW250
     FM290100 28004KT P6SM SCT250
     FM290800 34006KT P6SM OVC020
     FM291100 36010KT P6SM OVC015
      AMD LTD TO CLD VIS AND WIND=



000
FTUS41 KCAR 281500 AAA
TAFCAR
TAF AMD
KCAR 281501Z 2815/2912 23010G17KT P6SM FEW250
     FM290600 33004KT P6SM OVC045
     FM290800 34006KT P6SM OVC020
     FM291100 01010KT P6SM OVC020=



    US Dept of Commerce
    National Oceanic and Atmospheric Administration
    National Weather Service
    1325 East West Highway
    Silver Spring, MD 20910
    Page Author: NWS Internet Services Team
Disclaimer
Information Quality
Credits
Glossary
Privacy Policy
Freedom of Information Act (FOIA)
About Us
Career Opportunities